Time;durP1;ratioP1;P1;durP2;ratioP2;P2;SDS_P1;SDS_P2;PMS_P1;PMS_P2;Temp;Humidity;BMP_temperature;BMP_pressure;BME280_temperature;BME280_humidity;BME280_pressure;Samples;Min_cycle;Max_cycle;Signal;HPM_P1;HPM_P2
2022/07/17 00:02:20;;;;;;;1.20;1.20;;;;;;;15.52;57.72;98993.19;5023732;28;20041;-88
2022/07/17 00:04:47;;;;;;;1.35;1.25;;;;;;;15.55;55.24;98992.78;5019949;28;20042;-89
2022/07/17 00:07:14;;;;;;;1.60;1.50;;;;;;;15.50;54.65;99003.16;5019371;28;20732;-88
2022/07/17 00:09:41;;;;;;;1.80;1.70;;;;;;;15.28;54.80;98999.97;5010485;28;20092;-89
2022/07/17 00:12:07;;;;;;;1.77;1.50;;;;;;;15.17;55.27;99009.38;5023670;28;20099;-88
2022/07/17 00:14:34;;;;;;;2.40;1.70;;;;;;;15.17;56.01;99009.38;5025346;28;20472;-91
2022/07/17 00:17:01;;;;;;;1.50;1.40;;;;;;;15.18;55.57;99018.91;5024136;28;20037;-91
2022/07/17 00:19:28;;;;;;;2.03;1.63;;;;;;;15.09;56.35;99025.44;5019734;28;20061;-89
2022/07/17 00:21:55;;;;;;;1.95;1.50;;;;;;;14.98;56.19;99013.66;5023791;28;20038;-90
2022/07/17 00:24:22;;;;;;;3.53;1.50;;;;;;;14.95;57.35;99022.00;5025550;28;20045;-88
2022/07/17 00:26:52;;;;;;;2.08;1.98;;;;;;;14.70;57.41;99013.91;5021603;28;20042;-89
2022/07/17 00:29:20;;;;;;;2.03;1.83;;;;;;;14.66;57.49;99025.88;5023510;28;20056;-89
2022/07/17 00:31:47;;;;;;;1.63;1.40;;;;;;;14.60;58.97;99021.41;5019544;28;20037;-88
2022/07/17 00:34:14;;;;;;;1.20;1.10;;;;;;;14.80;59.66;99031.94;5022752;28;20040;-88
2022/07/17 00:36:41;;;;;;;1.75;1.65;;;;;;;14.81;57.61;99033.56;5019386;28;20505;-88
2022/07/17 00:39:08;;;;;;;1.60;1.50;;;;;;;14.89;57.94;99045.78;5015737;28;20054;-87
2022/07/17 00:41:35;;;;;;;1.98;1.88;;;;;;;14.87;57.45;99042.50;5019797;28;20034;-88
2022/07/17 00:44:10;;;;;;;1.77;1.67;;;;;;;14.79;57.55;99040.09;5024699;28;20041;-89
2022/07/17 00:46:37;;;;;;;2.33;1.90;;;;;;;14.66;57.72;99036.44;5022126;28;20033;-88
2022/07/17 00:49:06;;;;;;;2.00;1.80;;;;;;;14.77;57.73;99039.50;5042057;28;20049;-89
2022/07/17 00:51:34;;;;;;;1.92;1.65;;;;;;;14.66;56.81;99031.16;5024584;28;20124;-90
2022/07/17 00:54:03;;;;;;;1.73;1.63;;;;;;;14.64;56.66;99041.09;5005232;28;20042;-87
2022/07/17 00:56:39;;;;;;;1.92;1.58;;;;;;;14.52;56.57;99005.78;5012341;28;20045;-89
2022/07/17 00:59:07;;;;;;;1.60;1.50;;;;;;;14.69;57.04;99040.47;5028910;28;20046;-89
2022/07/17 01:01:33;;;;;;;1.58;1.48;;;;;;;14.72;56.34;99051.47;5025299;28;20072;-88
2022/07/17 01:04:00;;;;;;;1.85;1.70;;;;;;;14.68;56.90;99034.38;5027981;28;20051;-88
2022/07/17 01:06:27;;;;;;;2.08;1.48;;;;;;;14.70;56.43;99032.38;5021922;28;20033;-88
2022/07/17 01:08:54;;;;;;;2.30;1.45;;;;;;;14.69;56.68;99037.84;5020203;28;20057;-88
2022/07/17 01:11:21;;;;;;;2.25;1.50;;;;;;;14.64;56.47;99030.53;5020060;28;20096;-90
2022/07/17 01:13:48;;;;;;;1.25;1.15;;;;;;;14.71;56.18;99033.19;5018961;28;20052;-92
2022/07/17 01:16:16;;;;;;;1.52;1.27;;;;;;;14.70;56.07;99028.94;5022846;28;20042;-89
2022/07/17 01:18:43;;;;;;;1.58;1.30;;;;;;;14.79;56.06;99042.72;5018282;28;20554;-89
2022/07/17 01:21:09;;;;;;;2.40;1.27;;;;;;;14.76;55.04;99030.75;5022509;28;20056;-88
2022/07/17 01:23:36;;;;;;;1.30;1.20;;;;;;;14.72;54.75;99032.16;5006955;28;20046;-88
2022/07/17 01:26:03;;;;;;;1.98;1.40;;;;;;;14.69;54.17;99056.31;5020716;28;20037;-91
2022/07/17 01:28:30;;;;;;;2.00;1.30;;;;;;;14.65;55.32;99045.38;5010002;28;20490;-89
2022/07/17 01:31:00;;;;;;;1.90;1.50;;;;;;;14.67;55.37;99053.88;5000177;28;20041;-90
2022/07/17 01:33:27;;;;;;;2.28;1.50;;;;;;;14.57;55.35;99040.28;5026573;28;20492;-89
2022/07/17 01:35:53;;;;;;;2.45;1.65;;;;;;;14.53;55.74;99039.06;5023706;28;20432;-87
2022/07/17 01:38:20;;;;;;;2.70;1.50;;;;;;;14.43;56.29;99035.97;5009885;28;20045;-88
2022/07/17 01:40:47;;;;;;;1.75;1.50;;;;;;;14.45;56.69;99055.03;5022322;28;20088;-90
2022/07/17 01:43:14;;;;;;;1.73;1.60;;;;;;;14.34;56.82;99050.38;5004300;28;20037;-86
2022/07/17 01:45:41;;;;;;;1.67;1.30;;;;;;;14.19;57.90;99051.34;5019831;28;20068;-87
2022/07/17 01:48:08;;;;;;;1.70;1.60;;;;;;;14.18;58.65;99044.44;5006084;28;20583;-88
2022/07/17 01:50:35;;;;;;;1.90;1.60;;;;;;;14.05;59.63;99047.06;4999356;28;20049;-89
2022/07/17 01:53:02;;;;;;;1.75;1.65;;;;;;;14.01;58.88;99048.47;5020463;28;20057;-89
2022/07/17 01:55:29;;;;;;;2.10;1.50;;;;;;;13.97;59.52;99043.78;5042377;28;20037;-89
2022/07/17 01:57:56;;;;;;;1.73;1.40;;;;;;;13.95;60.54;99049.25;5024359;28;20553;-88
2022/07/17 02:00:25;;;;;;;3.47;1.80;;;;;;;13.82;60.16;99041.31;5022434;28;20053;-87
2022/07/17 02:02:52;;;;;;;1.60;1.50;;;;;;;13.75;59.99;99036.00;5023926;28;20181;-88
2022/07/17 02:05:19;;;;;;;1.55;1.45;;;;;;;13.89;59.83;99042.94;5017347;28;20390;-89
2022/07/17 02:07:46;;;;;;;1.83;1.70;;;;;;;13.77;59.34;99020.78;5020222;28;20500;-89
2022/07/17 02:10:16;;;;;;;1.73;1.63;;;;;;;13.81;59.46;99029.94;5001965;28;20049;-88
2022/07/17 02:12:44;;;;;;;1.90;1.75;;;;;;;13.85;59.60;99039.09;5019818;28;20033;-89
2022/07/17 02:15:11;;;;;;;1.10;1.10;;;;;;;13.77;60.40;99022.63;5008680;28;20433;-88
2022/07/17 02:17:40;;;;;;;1.70;1.60;;;;;;;13.75;60.50;99027.28;5015921;28;20049;-87
2022/07/17 02:20:09;;;;;;;1.73;1.63;;;;;;;13.65;61.29;99017.91;5022828;28;20452;-90
2022/07/17 02:22:36;;;;;;;1.75;1.65;;;;;;;13.63;61.51;99022.56;5002185;28;20049;-89
2022/07/17 02:25:06;;;;;;;1.33;1.23;;;;;;;13.69;62.79;99022.81;5006508;28;20041;-89
2022/07/17 02:27:34;;;;;;;1.60;1.50;;;;;;;13.74;64.29;99029.13;5028288;28;20042;-88
2022/07/17 02:30:08;;;;;;;1.40;1.30;;;;;;;13.73;63.08;99024.00;5025956;28;20046;-90
2022/07/17 02:32:35;;;;;;;1.80;1.70;;;;;;;13.57;60.93;99018.09;5004768;28;20092;-88
2022/07/17 02:35:03;;;;;;;1.75;1.65;;;;;;;13.36;61.30;99015.53;5019746;28;20053;-87
2022/07/17 02:37:30;;;;;;;1.60;1.50;;;;;;;13.36;63.23;99013.72;5024456;28;20461;-89
2022/07/17 02:39:58;;;;;;;2.25;2.00;;;;;;;13.57;65.77;99023.34;5039845;28;20060;-86
2022/07/17 02:42:28;;;;;;;1.90;1.80;;;;;;;13.78;65.30;99034.78;5017607;28;20042;-89
2022/07/17 02:44:57;;;;;;;1.87;1.77;;;;;;;13.90;65.00;99035.84;5025382;28;20045;-89
2022/07/17 02:47:35;;;;;;;1.85;1.73;;;;;;;13.91;63.23;99040.09;5005642;28;20092;-89
2022/07/17 02:50:08;;;;;;;2.05;1.55;;;;;;;13.91;64.91;99042.75;5023452;28;20045;-88
2022/07/17 02:52:36;;;;;;;1.88;1.30;;;;;;;13.69;62.92;99033.34;5019957;28;20060;-90
2022/07/17 02:55:05;;;;;;;1.90;1.30;;;;;;;13.59;62.57;99037.16;5024081;28;20429;-90
2022/07/17 02:57:32;;;;;;;1.65;1.55;;;;;;;13.48;61.88;99032.41;5018724;28;20042;-87
2022/07/17 02:59:59;;;;;;;1.63;1.52;;;;;;;13.39;61.48;99042.31;5021398;28;20498;-88
2022/07/17 03:02:26;;;;;;;2.42;1.70;;;;;;;13.30;61.01;99034.75;5019124;28;20045;-87
2022/07/17 03:04:53;;;;;;;3.22;2.00;;;;;;;13.18;61.71;99025.75;5020791;28;20069;-87
2022/07/17 03:07:19;;;;;;;1.67;1.58;;;;;;;13.05;61.69;99019.38;5007876;28;20053;-87
2022/07/17 03:09:46;;;;;;;1.30;1.20;;;;;;;13.06;61.95;99026.28;5039760;28;20053;-89
2022/07/17 03:12:13;;;;;;;1.70;1.60;;;;;;;12.92;61.87;99021.13;5017869;28;20121;-88
2022/07/17 03:14:39;;;;;;;2.20;1.38;;;;;;;13.09;65.60;99044.34;5019946;28;20042;-88
2022/07/17 03:17:06;;;;;;;1.92;1.75;;;;;;;13.19;67.01;99038.72;5015741;28;20507;-88
2022/07/17 03:19:34;;;;;;;1.50;1.40;;;;;;;13.18;62.44;99037.09;5016241;28;20042;-88
2022/07/17 03:22:01;;;;;;;1.50;1.38;;;;;;;12.99;62.65;99025.41;5019673;28;20041;-88
2022/07/17 03:24:28;;;;;;;1.63;1.30;;;;;;;12.93;62.28;99034.09;5003253;28;20064;-89
2022/07/17 03:26:54;;;;;;;1.40;1.30;;;;;;;12.89;62.86;99042.56;5023444;28;20041;-90
2022/07/17 03:29:22;;;;;;;1.70;1.20;;;;;;;12.85;63.70;99055.31;5010036;28;20675;-87
2022/07/17 03:31:49;;;;;;;1.42;1.33;;;;;;;12.78;63.97;99051.81;5039870;28;20465;-88
2022/07/17 03:34:16;;;;;;;2.17;1.55;;;;;;;12.70;64.31;99050.09;5020999;28;20045;-86
2022/07/17 03:36:43;;;;;;;2.75;1.70;;;;;;;12.50;64.51;99039.41;5022705;28;20188;-87
2022/07/17 03:39:10;;;;;;;2.35;1.60;;;;;;;12.40;64.47;99032.84;5026206;28;20080;-88
2022/07/17 03:41:37;;;;;;;1.50;1.23;;;;;;;12.45;65.07;99049.69;5007849;28;20049;-88
2022/07/17 03:44:04;;;;;;;1.98;1.60;;;;;;;12.38;64.94;99043.56;5025527;28;20049;-89
2022/07/17 03:46:31;;;;;;;1.50;1.40;;;;;;;12.38;65.78;99056.72;5025486;28;20420;-89
2022/07/17 03:48:57;;;;;;;2.03;1.50;;;;;;;12.50;66.18;99052.56;5028345;28;20073;-88
2022/07/17 03:51:25;;;;;;;2.67;1.67;;;;;;;12.67;68.67;99052.31;5007495;28;20482;-88
2022/07/17 03:53:52;;;;;;;1.90;1.80;;;;;;;12.82;68.49;99053.03;5024455;28;20470;-88
2022/07/17 03:56:20;;;;;;;2.00;1.85;;;;;;;12.82;68.07;99053.84;5028734;28;20132;-88
2022/07/17 03:58:47;;;;;;;1.50;1.40;;;;;;;12.70;67.64;99050.09;5027628;28;20088;-89
2022/07/17 04:01:13;;;;;;;2.10;1.70;;;;;;;12.64;65.84;99057.94;5022168;28;20042;-87
2022/07/17 04:03:40;;;;;;;2.67;1.50;;;;;;;12.48;65.00;99046.69;5006460;28;20038;-88
2022/07/17 04:06:07;;;;;;;1.50;1.40;;;;;;;12.63;69.37;99061.59;5023891;28;20482;-89
2022/07/17 04:08:34;;;;;;;1.52;1.42;;;;;;;12.65;67.40;99047.22;5024284;28;20052;-89
2022/07/17 04:11:01;;;;;;;1.73;1.60;;;;;;;12.43;64.80;99056.16;5024726;28;20049;-87
2022/07/17 04:13:35;;;;;;;3.08;1.80;;;;;;;12.23;66.77;99059.38;5024552;28;20064;-88
2022/07/17 04:16:03;;;;;;;1.88;1.70;;;;;;;12.02;67.02;99073.31;5019205;28;20056;-90
2022/07/17 04:18:34;;;;;;;2.55;1.90;;;;;;;11.89;67.54;99067.91;5023733;28;20049;-88
2022/07/17 04:21:07;;;;;;;3.17;1.90;;;;;;;11.99;67.37;99063.16;5027179;28;20042;-87
2022/07/17 04:23:35;;;;;;;2.85;1.52;;;;;;;11.92;67.10;99057.00;5021802;28;20464;-88
2022/07/17 04:26:06;;;;;;;2.08;1.58;;;;;;;12.13;67.71;99061.50;5026469;28;20041;-87
2022/07/17 04:28:40;;;;;;;2.92;2.03;;;;;;;12.08;66.46;99063.06;5017384;28;20077;-87
2022/07/17 04:31:07;;;;;;;2.28;1.40;;;;;;;12.07;66.23;99048.28;5024156;28;20144;-86
2022/07/17 04:33:35;;;;;;;1.98;1.58;;;;;;;12.09;65.69;99041.03;5024673;28;20409;-87
2022/07/17 04:36:02;;;;;;;2.88;1.73;;;;;;;12.16;65.79;99049.78;5007615;28;20037;-88
2022/07/17 04:38:29;;;;;;;3.70;1.48;;;;;;;12.28;65.40;99045.66;5021671;28;20164;-87
2022/07/17 04:40:56;;;;;;;2.65;1.55;;;;;;;12.41;66.80;99048.44;5023466;28;20073;-88
2022/07/17 04:43:23;;;;;;;1.15;1.15;;;;;;;12.53;70.60;99046.94;5023913;28;20121;-90
2022/07/17 04:45:50;;;;;;;1.58;1.48;;;;;;;12.45;68.65;99052.31;5005881;28;20050;-87
2022/07/17 04:48:17;;;;;;;1.42;1.33;;;;;;;12.52;67.58;99058.44;5003340;28;20049;-88
2022/07/17 04:50:44;;;;;;;1.50;1.40;;;;;;;12.49;67.51;99052.75;5025615;28;20042;-87
2022/07/17 04:53:11;;;;;;;1.70;1.60;;;;;;;12.47;66.26;99050.31;5026185;28;20073;-89
2022/07/17 04:55:37;;;;;;;1.48;1.30;;;;;;;12.51;66.39;99051.56;5019289;28;20108;-87
2022/07/17 04:58:04;;;;;;;1.60;1.50;;;;;;;12.62;67.42;99065.22;5019112;28;20464;-88
2022/07/17 05:00:31;;;;;;;1.45;1.35;;;;;;;12.56;66.38;99043.09;5022089;28;20164;-87
2022/07/17 05:02:58;;;;;;;1.55;1.45;;;;;;;12.54;66.74;99055.66;5021503;28;20045;-85
2022/07/17 05:05:25;;;;;;;1.85;1.60;;;;;;;12.43;66.98;99059.59;5023763;28;20330;-88
2022/07/17 05:07:53;;;;;;;1.80;1.55;;;;;;;12.51;67.47;99059.47;5024508;28;20045;-86
2022/07/17 05:10:19;;;;;;;1.60;1.50;;;;;;;12.53;67.07;99054.84;5021469;28;20037;-88
2022/07/17 05:12:53;;;;;;;2.05;1.40;;;;;;;12.58;66.79;99057.69;5024623;28;20045;-89
2022/07/17 05:15:20;;;;;;;1.45;1.33;;;;;;;12.72;67.09;99065.72;5003074;28;20525;-88
2022/07/17 05:17:46;;;;;;;1.48;1.33;;;;;;;12.73;66.45;99064.72;5020085;28;20099;-87
2022/07/17 05:20:13;;;;;;;2.25;1.50;;;;;;;12.71;65.97;99061.44;5021132;28;20611;-85
2022/07/17 05:22:40;;;;;;;1.42;1.33;;;;;;;12.93;66.46;99060.41;5020729;28;20612;-89
2022/07/17 05:25:07;;;;;;;1.90;1.55;;;;;;;12.99;65.51;99059.66;5003636;28;20527;-88
2022/07/17 05:27:34;;;;;;;1.98;1.60;;;;;;;13.00;64.61;99061.28;5010509;28;20056;-88
2022/07/17 05:30:01;;;;;;;3.33;1.40;;;;;;;13.18;65.30;99068.69;5022574;28;20586;-89
2022/07/17 05:32:27;;;;;;;2.30;1.20;;;;;;;13.29;65.28;99070.03;5017580;28;20050;-90
2022/07/17 05:34:54;;;;;;;1.48;1.33;;;;;;;13.39;64.69;99062.59;5024200;28;20406;-88
2022/07/17 05:37:21;;;;;;;1.80;1.25;;;;;;;13.58;63.14;99072.44;5009564;28;20452;-88
2022/07/17 05:39:48;;;;;;;1.58;1.27;;;;;;;13.78;62.95;99063.78;5023114;28;20045;-87
2022/07/17 05:42:14;;;;;;;1.30;1.20;;;;;;;13.89;64.22;99060.59;5021069;28;20095;-87
2022/07/17 05:44:41;;;;;;;1.55;1.30;;;;;;;13.90;61.54;99075.41;5007514;28;20052;-87
2022/07/17 05:47:08;;;;;;;1.02;1.00;;;;;;;14.07;63.03;99079.31;5005646;28;20099;-88
2022/07/17 05:49:35;;;;;;;1.42;1.33;;;;;;;14.18;60.64;99081.38;5024234;28;20493;-86
2022/07/17 05:52:01;;;;;;;1.58;1.38;;;;;;;14.27;60.48;99089.94;5025495;28;20463;-86
2022/07/17 05:54:28;;;;;;;1.85;1.40;;;;;;;14.33;60.67;99083.03;5041127;28;20153;-86
2022/07/17 05:56:55;;;;;;;2.03;1.70;;;;;;;14.44;59.53;99095.66;5024491;28;20505;-89
2022/07/17 05:59:21;;;;;;;3.70;1.52;;;;;;;14.43;58.66;99084.28;5022868;28;20041;-86
2022/07/17 06:01:48;;;;;;;2.78;1.60;;;;;;;14.58;58.88;99089.44;5022452;28;20099;-87
2022/07/17 06:04:15;;;;;;;1.88;1.20;;;;;;;14.69;58.77;99088.84;5021475;28;20293;-87
2022/07/17 06:06:42;;;;;;;1.70;1.52;;;;;;;14.92;59.32;99090.25;5024327;28;20501;-91
2022/07/17 06:09:09;;;;;;;2.65;1.73;;;;;;;14.90;58.54;99079.91;5018525;28;20533;-87
2022/07/17 06:11:35;;;;;;;1.50;1.40;;;;;;;15.20;58.59;99096.16;5012417;28;20430;-87
2022/07/17 06:14:03;;;;;;;1.13;1.02;;;;;;;15.33;58.51;99097.16;5021855;28;20600;-87
2022/07/17 06:16:30;;;;;;;1.95;1.30;;;;;;;15.50;57.04;99111.56;5023231;28;20103;-87
2022/07/17 06:18:57;;;;;;;1.50;1.40;;;;;;;15.45;56.56;99095.50;5019952;28;20061;-87
2022/07/17 06:21:24;;;;;;;1.60;1.35;;;;;;;15.62;57.44;99099.34;5024024;28;20054;-88
2022/07/17 06:23:51;;;;;;;2.17;1.20;;;;;;;15.82;57.51;99098.47;5020776;28;20029;-87
2022/07/17 06:26:18;;;;;;;1.35;1.08;;;;;;;16.19;55.65;99110.97;5022850;28;20567;-86
2022/07/17 06:28:45;;;;;;;1.42;1.02;;;;;;;16.36;56.60;99105.16;5021186;28;20045;-88
2022/07/17 06:31:12;;;;;;;1.90;1.00;;;;;;;16.53;58.53;99103.63;5019946;28;20061;-86
2022/07/17 06:33:39;;;;;;;1.23;1.08;;;;;;;16.78;55.01;99109.81;5025990;28;20040;-88
2022/07/17 06:36:06;;;;;;;2.58;1.02;;;;;;;16.84;54.57;99098.34;5021954;28;20038;-87
2022/07/17 06:38:33;;;;;;;1.27;0.80;;;;;;;17.13;54.97;99085.47;5015361;28;20057;-86
2022/07/17 06:41:01;;;;;;;1.00;0.82;;;;;;;17.30;52.63;99106.94;5022735;28;20719;-87
2022/07/17 06:43:28;;;;;;;2.10;0.90;;;;;;;17.49;54.33;99118.41;5015577;28;20041;-87
2022/07/17 06:45:55;;;;;;;0.95;0.95;;;;;;;17.74;56.23;99113.88;5024977;28;20128;-86
2022/07/17 06:48:23;;;;;;;1.48;1.10;;;;;;;17.80;53.05;99109.53;5012739;28;20041;-86
2022/07/17 06:50:50;;;;;;;0.85;0.80;;;;;;;18.06;54.65;99116.38;5008804;28;20057;-88
2022/07/17 06:53:17;;;;;;;0.93;0.93;;;;;;;18.19;53.36;99106.41;5015118;28;20550;-86
2022/07/17 06:55:44;;;;;;;1.08;0.85;;;;;;;18.26;51.63;99100.19;5026322;28;20045;-86
2022/07/17 06:58:10;;;;;;;0.90;0.90;;;;;;;18.42;51.35;99115.50;5022758;28;20038;-88
2022/07/17 07:00:38;;;;;;;1.52;1.00;;;;;;;18.47;48.32;99107.66;5021741;28;20064;-86
2022/07/17 07:03:05;;;;;;;0.80;0.80;;;;;;;18.68;48.76;99119.66;5008870;28;20041;-85
2022/07/17 07:05:33;;;;;;;1.33;1.00;;;;;;;18.81;49.33;99116.78;5019015;28;20045;-86
2022/07/17 07:08:00;;;;;;;0.95;0.70;;;;;;;18.91;48.23;99109.06;5024345;28;20041;-85
2022/07/17 07:10:28;;;;;;;1.52;0.98;;;;;;;19.10;48.23;99107.13;5007920;28;20034;-85
2022/07/17 07:12:54;;;;;;;1.85;0.90;;;;;;;19.31;46.38;99112.91;5010816;28;20064;-85
2022/07/17 07:15:23;;;;;;;2.03;1.13;;;;;;;19.50;47.41;99106.44;5025793;28;20091;-86
2022/07/17 07:17:50;;;;;;;1.35;0.80;;;;;;;19.81;46.23;99117.78;5019150;28;20048;-86
2022/07/17 07:20:16;;;;;;;0.80;0.80;;;;;;;19.94;48.14;99107.66;5026004;28;20041;-85
2022/07/17 07:22:43;;;;;;;0.93;0.90;;;;;;;20.19;44.82;99126.00;5026397;28;20045;-85
2022/07/17 07:25:10;;;;;;;0.82;0.73;;;;;;;20.35;43.72;99115.66;5025671;28;20425;-85
2022/07/17 07:27:37;;;;;;;0.95;0.80;;;;;;;20.42;44.04;99119.78;5026120;28;20042;-84
2022/07/17 07:30:04;;;;;;;0.73;0.70;;;;;;;20.61;44.31;99122.28;5024455;28;20049;-88
2022/07/17 07:32:30;;;;;;;1.58;0.70;;;;;;;20.76;44.45;99114.56;5044524;28;20091;-85
2022/07/17 07:34:57;;;;;;;1.13;0.60;;;;;;;20.79;44.47;99114.84;5022809;28;20571;-87
2022/07/17 07:37:24;;;;;;;1.65;0.60;;;;;;;20.86;44.30;99109.38;5025958;28;20096;-86
2022/07/17 07:39:50;;;;;;;0.90;0.85;;;;;;;20.84;43.50;99111.47;5023494;28;20470;-86
2022/07/17 07:42:17;;;;;;;1.77;1.10;;;;;;;20.75;42.34;99112.91;5026189;28;20100;-86
2022/07/17 07:44:44;;;;;;;1.50;0.98;;;;;;;21.06;44.10;99115.03;5030117;28;20562;-86
2022/07/17 07:47:10;;;;;;;0.80;0.80;;;;;;;21.26;43.48;99103.06;5023913;28;20041;-86
2022/07/17 07:49:37;;;;;;;3.28;0.88;;;;;;;21.43;42.30;99095.88;5026549;28;20501;-86
2022/07/17 07:52:06;;;;;;;1.60;0.80;;;;;;;21.51;41.88;99095.44;5028025;28;20080;-85
2022/07/17 07:54:34;;;;;;;1.42;0.80;;;;;;;21.68;40.87;99089.25;5024521;28;20046;-86
2022/07/17 07:57:01;;;;;;;0.75;0.70;;;;;;;21.89;42.91;99086.59;5024737;28;20436;-85
2022/07/17 07:59:33;;;;;;;0.85;0.80;;;;;;;22.00;40.81;99086.69;5024031;28;20119;-86
2022/07/17 08:02:01;;;;;;;1.00;0.90;;;;;;;22.01;40.17;99097.16;5021206;28;20605;-85
2022/07/17 08:04:28;;;;;;;1.45;0.70;;;;;;;22.23;40.96;99097.16;5026736;28;20482;-84
2022/07/17 08:06:55;;;;;;;0.93;0.70;;;;;;;22.22;39.46;99098.22;5023858;28;20123;-88
2022/07/17 08:09:22;;;;;;;0.88;0.70;;;;;;;22.49;41.73;99113.44;5024260;28;20049;-85
2022/07/17 08:11:48;;;;;;;1.60;0.98;;;;;;;22.41;41.12;99107.50;5024462;28;20045;-85
2022/07/17 08:14:15;;;;;;;1.08;0.98;;;;;;;22.36;39.88;99101.28;5027270;28;20088;-88
2022/07/17 08:16:43;;;;;;;2.17;0.88;;;;;;;22.43;41.65;99104.56;5008035;28;20482;-83
2022/07/17 08:19:10;;;;;;;1.67;0.95;;;;;;;22.43;38.13;99104.56;5021025;28;20088;-87
2022/07/17 08:21:37;;;;;;;1.75;0.80;;;;;;;22.38;37.93;99115.22;5025014;28;20046;-84
2022/07/17 08:24:04;;;;;;;1.58;0.85;;;;;;;22.51;39.35;99106.00;5025509;28;20494;-85
2022/07/17 08:26:31;;;;;;;0.80;0.80;;;;;;;22.68;38.72;99117.41;5023868;28;20350;-86
2022/07/17 08:28:58;;;;;;;1.35;0.98;;;;;;;22.68;37.11;99104.81;5026670;28;20448;-86
2022/07/17 08:31:25;;;;;;;0.70;0.70;;;;;;;22.83;37.15;99111.34;5024320;28;20095;-86
2022/07/17 08:33:52;;;;;;;0.90;0.70;;;;;;;22.89;36.57;99116.53;5023665;28;20089;-85
2022/07/17 08:36:18;;;;;;;1.50;0.80;;;;;;;23.03;35.41;99114.25;5027050;28;20042;-86
2022/07/17 08:38:45;;;;;;;1.20;0.80;;;;;;;23.17;34.90;99106.56;5022361;28;20046;-88
2022/07/17 08:41:16;;;;;;;0.75;0.70;;;;;;;23.13;35.97;99116.97;5024311;28;20092;-84
2022/07/17 08:43:44;;;;;;;1.27;0.73;;;;;;;23.24;36.40;99116.00;5024287;28;20052;-85
2022/07/17 08:46:12;;;;;;;1.88;0.80;;;;;;;23.18;35.43;99109.00;5023309;28;20045;-86
2022/07/17 08:48:45;;;;;;;0.70;0.70;;;;;;;23.22;34.26;99120.81;5024662;28;20038;-84
2022/07/17 08:51:16;;;;;;;1.58;0.80;;;;;;;23.20;34.88;99109.53;5023830;28;20057;-86
2022/07/17 08:53:44;;;;;;;2.67;1.05;;;;;;;22.97;33.97;99104.56;5021058;28;20037;-90
2022/07/17 08:56:11;;;;;;;0.90;0.70;;;;;;;23.09;35.00;99101.69;5021468;28;20046;-87
2022/07/17 08:58:37;;;;;;;1.58;0.70;;;;;;;23.33;36.61;99099.44;5025760;28;20103;-88
2022/07/17 09:01:05;;;;;;;0.55;0.47;;;;;;;23.58;36.60;99098.81;5026971;28;20436;-84
2022/07/17 09:03:32;;;;;;;1.05;0.70;;;;;;;23.73;34.53;99091.66;5024020;28;20072;-86
2022/07/17 09:06:21;;;;;;;1.25;0.70;;;;;;;23.91;33.99;99094.97;5025288;28;20041;-83
2022/07/17 09:08:48;;;;;;;1.02;0.77;;;;;;;23.96;35.41;99092.31;5024568;28;20041;-87
2022/07/17 09:11:14;;;;;;;0.98;0.88;;;;;;;24.15;34.15;99100.66;5025708;28;20041;-87
2022/07/17 09:13:47;;;;;;;1.63;1.00;;;;;;;23.94;33.48;99089.09;5039505;28;20103;-86
2022/07/17 09:16:13;;;;;;;3.15;1.05;;;;;;;23.82;34.24;99093.88;5024815;28;20136;-87
2022/07/17 09:18:50;;;;;;;0.70;0.65;;;;;;;23.95;34.16;99102.22;5020397;28;20037;-84
2022/07/17 09:21:24;;;;;;;0.95;0.80;;;;;;;23.83;33.53;99095.47;5031206;28;20045;-86
2022/07/17 09:24:06;;;;;;;1.23;0.70;;;;;;;23.93;33.61;99092.81;5026640;28;20037;-86
2022/07/17 09:26:37;;;;;;;1.45;0.70;;;;;;;24.12;35.13;99088.59;5023147;28;20038;-86
2022/07/17 09:29:04;;;;;;;;;;;;;;;24.35;34.42;99086.53;5024722;28;20455;-83
2022/07/17 09:31:33;;;;;;;2.78;0.80;;;;;;;24.54;36.52;99080.41;5023944;28;19920;-86
2022/07/17 09:34:00;;;;;;;1.02;0.65;;;;;;;24.76;35.90;99082.81;5024245;28;20046;-84
2022/07/17 09:36:27;;;;;;;0.93;0.60;;;;;;;24.81;35.85;99073.97;5024574;28;20049;-85
2022/07/17 09:38:57;;;;;;;0.98;0.60;;;;;;;24.83;34.46;99071.84;5023743;28;20120;-83
2022/07/17 09:41:29;;;;;;;0.80;0.65;;;;;;;24.76;33.57;99073.97;5024090;28;20045;-85
2022/07/17 09:44:00;;;;;;;1.50;0.80;;;;;;;24.77;33.85;99072.88;5025656;28;20037;-85
2022/07/17 09:46:31;;;;;;;1.05;0.70;;;;;;;24.90;33.56;99074.25;5024621;28;20441;-85
2022/07/17 09:49:10;;;;;;;2.45;0.95;;;;;;;24.74;34.44;99068.88;5025485;28;20457;-86
2022/07/17 09:51:40;;;;;;;0.98;0.80;;;;;;;24.92;33.24;99064.03;5023662;28;20041;-83
2022/07/17 09:54:13;;;;;;;0.93;0.70;;;;;;;24.84;32.96;99062.72;5020387;28;20095;-85
2022/07/17 09:56:39;;;;;;;1.60;1.00;;;;;;;24.78;32.48;99067.28;5023026;28;20532;-86
2022/07/17 09:59:13;;;;;;;0.73;0.70;;;;;;;24.92;34.06;99072.91;5022127;28;20042;-84
2022/07/17 10:01:44;;;;;;;0.82;0.80;;;;;;;24.84;31.83;99070.75;5024845;28;20068;-87
2022/07/17 10:04:11;;;;;;;1.70;0.90;;;;;;;24.91;35.82;99059.75;5006657;28;20487;-85
2022/07/17 10:06:39;;;;;;;1.30;1.08;;;;;;;24.75;31.87;99062.44;5022547;28;20092;-86
2022/07/17 10:09:06;;;;;;;1.90;1.10;;;;;;;24.80;32.39;99065.13;5042702;28;20069;-85
2022/07/17 10:11:37;;;;;;;2.90;1.17;;;;;;;24.86;31.17;99063.25;5021193;28;20052;-87
2022/07/17 10:14:15;;;;;;;1.85;1.10;;;;;;;24.74;31.71;99058.16;5021336;28;20074;-88
2022/07/17 10:16:45;;;;;;;1.75;0.77;;;;;;;24.99;31.88;99053.84;5022426;28;20056;-85
2022/07/17 10:19:32;;;;;;;1.27;0.70;;;;;;;25.28;32.10;99059.47;5021290;28;20060;-85
2022/07/17 10:22:05;;;;;;;1.02;0.90;;;;;;;25.44;32.36;99052.19;5026618;28;20045;-83
2022/07/17 10:24:32;;;;;;;1.48;0.80;;;;;;;25.46;30.46;99041.94;5019966;28;20042;-86
2022/07/17 10:27:00;;;;;;;0.77;0.77;;;;;;;25.57;30.37;99046.22;5021644;28;20118;-86
2022/07/17 10:29:38;;;;;;;1.70;0.65;;;;;;;25.59;29.97;99054.78;5024214;28;20046;-86
2022/07/17 10:32:18;;;;;;;1.10;0.90;;;;;;;25.28;29.97;99046.03;5023147;28;20121;-90
2022/07/17 10:34:49;;;;;;;0.60;0.60;;;;;;;25.33;30.10;99033.41;5022015;28;20030;-85
2022/07/17 10:37:20;;;;;;;0.80;0.60;;;;;;;25.51;29.97;99048.13;5025827;28;20099;-85
2022/07/17 10:40:06;;;;;;;1.08;0.80;;;;;;;25.70;29.10;99056.38;5033205;28;20128;-87
2022/07/17 10:43:00;;;;;;;1.42;0.80;;;;;;;25.72;29.88;99054.19;5027235;28;20045;-85
2022/07/17 10:45:46;;;;;;;1.00;0.73;;;;;;;25.86;30.30;99052.56;5028443;28;20037;-85
2022/07/17 10:48:19;;;;;;;0.70;0.70;;;;;;;26.14;30.74;99061.00;5027670;28;20065;-84
2022/07/17 10:50:53;;;;;;;0.77;0.73;;;;;;;25.93;29.08;99060.31;5030078;28;20038;-86
2022/07/17 10:53:26;;;;;;;2.25;0.90;;;;;;;25.79;28.31;99054.75;5024724;28;20080;-89
2022/07/17 10:56:05;;;;;;;1.02;0.80;;;;;;;25.66;28.14;99055.28;5023697;28;20502;-92
2022/07/17 10:58:44;;;;;;;1.05;0.80;;;;;;;25.77;30.24;99051.53;5011600;28;20045;-84
2022/07/17 11:01:17;;;;;;;1.25;0.75;;;;;;;26.01;30.48;99050.88;5026594;28;20038;-84
2022/07/17 11:04:00;;;;;;;2.13;0.70;;;;;;;26.19;28.55;99052.91;5027434;28;20481;-86
2022/07/17 11:06:33;;;;;;;0.50;0.50;;;;;;;26.30;28.97;99053.66;5026361;28;20048;-85
2022/07/17 11:09:10;;;;;;;2.25;0.90;;;;;;;26.04;28.39;99055.72;5025355;28;20045;-87
2022/07/17 11:11:49;;;;;;;1.80;0.88;;;;;;;25.54;28.16;99057.50;5022155;28;20041;-89
2022/07/17 11:14:26;;;;;;;1.52;0.90;;;;;;;25.56;30.20;99058.03;5014096;28;20107;-84
2022/07/17 11:16:58;;;;;;;0.90;0.90;;;;;;;25.87;28.74;99043.41;5025553;28;20041;-87
2022/07/17 11:19:34;;;;;;;0.82;0.68;;;;;;;26.12;30.37;99041.66;5024050;28;20065;-85
2022/07/17 11:22:05;;;;;;;1.77;1.00;;;;;;;26.21;27.90;99039.19;5042290;28;20074;-86
2022/07/17 11:24:44;;;;;;;0.52;0.50;;;;;;;26.44;28.13;99033.13;5027198;28;20549;-85
2022/07/17 11:27:22;;;;;;;1.20;0.82;;;;;;;26.58;27.10;99034.13;5025733;28;20084;-91
2022/07/17 11:29:52;;;;;;;1.63;0.98;;;;;;;26.50;27.01;99036.59;5021746;28;20455;-87
2022/07/17 11:32:19;;;;;;;0.80;0.67;;;;;;;26.54;27.15;99027.69;5027204;28;20091;-86
2022/07/17 11:34:47;;;;;;;1.05;0.60;;;;;;;26.70;27.44;99030.25;5026355;28;20783;-84
2022/07/17 11:37:13;;;;;;;0.63;0.63;;;;;;;26.84;28.24;99031.19;5020157;28;20079;-85
2022/07/17 11:39:49;;;;;;;0.70;0.70;;;;;;;26.77;26.67;99033.44;5025791;28;20046;-93
2022/07/17 11:42:20;;;;;;;0.75;0.75;;;;;;;26.75;27.70;99038.28;5040049;28;20508;-86